sensor_id;sensor_type;location;lat;lon;timestamp;pressure;altitude;pressure_sealevel;temperature;humidity
18850;BME280;4989;48.772;9.154;2022-09-29T00:01:49;96515.69;;;10.97;100.00
18850;BME280;4989;48.772;9.154;2022-09-29T00:06:52;96519.53;;;11.15;100.00
18850;BME280;4989;48.772;9.154;2022-09-29T00:11:55;96522.03;;;11.76;100.00
18850;BME280;4989;48.772;9.154;2022-09-29T00:16:57;96511.34;;;11.48;100.00
18850;BME280;4989;48.772;9.154;2022-09-29T00:22:00;96503.47;;;11.26;100.00
18850;BME280;4989;48.772;9.154;2022-09-29T00:27:03;96505.31;;;11.20;100.00
18850;BME280;4989;48.772;9.154;2022-09-29T00:32:05;96498.00;;;11.74;100.00
18850;BME280;4989;48.772;9.154;2022-09-29T00:37:08;96501.72;;;11.62;100.00
18850;BME280;4989;48.772;9.154;2022-09-29T00:42:17;96502.88;;;11.22;100.00
18850;BME280;4989;48.772;9.154;2022-09-29T00:47:21;96501.56;;;10.84;100.00
18850;BME280;4989;48.772;9.154;2022-09-29T00:57:33;96496.00;;;10.36;100.00
18850;BME280;4989;48.772;9.154;2022-09-29T01:02:44;96491.84;;;10.59;100.00
18850;BME280;4989;48.772;9.154;2022-09-29T01:07:48;96491.88;;;10.50;100.00
18850;BME280;4989;48.772;9.154;2022-09-29T01:12:52;96489.81;;;10.78;100.00
18850;BME280;4989;48.772;9.154;2022-09-29T01:17:55;96480.13;;;10.86;100.00
18850;BME280;4989;48.772;9.154;2022-09-29T01:29:40;96479.25;;;11.28;100.00
18850;BME280;4989;48.772;9.154;2022-09-29T01:44:44;96485.91;;;10.70;100.00
18850;BME280;4989;48.772;9.154;2022-09-29T01:50:20;96481.91;;;11.13;100.00
18850;BME280;4989;48.772;9.154;2022-09-29T01:55:27;96486.25;;;10.63;100.00
18850;BME280;4989;48.772;9.154;2022-09-29T02:00:38;96490.16;;;10.62;100.00
18850;BME280;4989;48.772;9.154;2022-09-29T02:05:49;96493.72;;;11.34;100.00
18850;BME280;4989;48.772;9.154;2022-09-29T02:11:04;96494.09;;;11.27;100.00
18850;BME280;4989;48.772;9.154;2022-09-29T02:16:12;96497.38;;;11.07;100.00
18850;BME280;4989;48.772;9.154;2022-09-29T02:21:17;96502.22;;;11.03;100.00
18850;BME280;4989;48.772;9.154;2022-09-29T02:26:20;96501.81;;;10.95;100.00
18850;BME280;4989;48.772;9.154;2022-09-29T02:31:23;96501.97;;;10.92;100.00
18850;BME280;4989;48.772;9.154;2022-09-29T02:41:52;96501.13;;;11.10;100.00
18850;BME280;4989;48.772;9.154;2022-09-29T02:57:54;96489.56;;;11.24;100.00
18850;BME280;4989;48.772;9.154;2022-09-29T03:02:58;96492.97;;;11.10;100.00
18850;BME280;4989;48.772;9.154;2022-09-29T03:08:01;96477.00;;;11.03;100.00
18850;BME280;4989;48.772;9.154;2022-09-29T03:13:03;96471.97;;;11.34;100.00
18850;BME280;4989;48.772;9.154;2022-09-29T03:18:06;96480.91;;;11.35;100.00
18850;BME280;4989;48.772;9.154;2022-09-29T03:23:11;96474.97;;;10.88;100.00
18850;BME280;4989;48.772;9.154;2022-09-29T03:28:13;96477.50;;;10.59;100.00
18850;BME280;4989;48.772;9.154;2022-09-29T03:33:17;96480.22;;;10.59;100.00
18850;BME280;4989;48.772;9.154;2022-09-29T03:38:20;96465.31;;;10.54;100.00
18850;BME280;4989;48.772;9.154;2022-09-29T03:43:23;96468.09;;;10.17;100.00
18850;BME280;4989;48.772;9.154;2022-09-29T03:48:25;96454.09;;;10.09;100.00
18850;BME280;4989;48.772;9.154;2022-09-29T03:53:35;96456.50;;;9.98;100.00
18850;BME280;4989;48.772;9.154;2022-09-29T03:58:38;96458.44;;;10.07;100.00
18850;BME280;4989;48.772;9.154;2022-09-29T04:03:40;96466.16;;;9.99;100.00
18850;BME280;4989;48.772;9.154;2022-09-29T04:08:43;96461.66;;;9.87;100.00
18850;BME280;4989;48.772;9.154;2022-09-29T04:13:45;96464.69;;;9.71;100.00
18850;BME280;4989;48.772;9.154;2022-09-29T04:18:49;96454.72;;;9.86;100.00
18850;BME280;4989;48.772;9.154;2022-09-29T04:23:51;96458.97;;;9.78;100.00
18850;BME280;4989;48.772;9.154;2022-09-29T04:28:55;96458.66;;;9.57;100.00
18850;BME280;4989;48.772;9.154;2022-09-29T04:33:57;96459.25;;;9.52;100.00
18850;BME280;4989;48.772;9.154;2022-09-29T04:38:59;96456.25;;;9.50;100.00
18850;BME280;4989;48.772;9.154;2022-09-29T04:44:02;96463.50;;;9.44;100.00
18850;BME280;4989;48.772;9.154;2022-09-29T04:49:05;96461.06;;;9.46;100.00
18850;BME280;4989;48.772;9.154;2022-09-29T04:54:08;96473.69;;;9.95;100.00
18850;BME280;4989;48.772;9.154;2022-09-29T04:59:10;96484.56;;;9.77;100.00
18850;BME280;4989;48.772;9.154;2022-09-29T05:04:13;96488.19;;;9.64;100.00
18850;BME280;4989;48.772;9.154;2022-09-29T05:09:16;96485.19;;;9.44;100.00
18850;BME280;4989;48.772;9.154;2022-09-29T05:14:19;96507.00;;;9.31;100.00
18850;BME280;4989;48.772;9.154;2022-09-29T05:19:21;96511.25;;;9.42;100.00
18850;BME280;4989;48.772;9.154;2022-09-29T05:24:24;96510.78;;;9.98;100.00
18850;BME280;4989;48.772;9.154;2022-09-29T05:29:26;96511.56;;;9.80;100.00
18850;BME280;4989;48.772;9.154;2022-09-29T05:34:29;96511.69;;;9.58;100.00
18850;BME280;4989;48.772;9.154;2022-09-29T05:39:31;96508.53;;;9.88;100.00
18850;BME280;4989;48.772;9.154;2022-09-29T05:44:35;96510.03;;;9.98;100.00
18850;BME280;4989;48.772;9.154;2022-09-29T05:49:38;96510.19;;;9.94;100.00
18850;BME280;4989;48.772;9.154;2022-09-29T05:54:40;96509.25;;;10.16;100.00
18850;BME280;4989;48.772;9.154;2022-09-29T05:59:42;96515.91;;;10.24;100.00
18850;BME280;4989;48.772;9.154;2022-09-29T06:04:45;96513.63;;;10.41;100.00
18850;BME280;4989;48.772;9.154;2022-09-29T06:09:47;96509.38;;;10.49;100.00
18850;BME280;4989;48.772;9.154;2022-09-29T06:14:50;96510.22;;;10.64;100.00
18850;BME280;4989;48.772;9.154;2022-09-29T06:19:53;96513.69;;;10.65;100.00
18850;BME280;4989;48.772;9.154;2022-09-29T06:24:55;96521.38;;;10.75;100.00
18850;BME280;4989;48.772;9.154;2022-09-29T06:29:58;96528.47;;;10.73;100.00
18850;BME280;4989;48.772;9.154;2022-09-29T06:35:02;96524.53;;;10.74;100.00
18850;BME280;4989;48.772;9.154;2022-09-29T06:40:22;96549.03;;;10.65;100.00
18850;BME280;4989;48.772;9.154;2022-09-29T06:45:26;96550.16;;;10.91;100.00
18850;BME280;4989;48.772;9.154;2022-09-29T06:50:29;96542.19;;;10.78;100.00
18850;BME280;4989;48.772;9.154;2022-09-29T06:55:31;96541.22;;;10.48;100.00
18850;BME280;4989;48.772;9.154;2022-09-29T07:00:34;96540.34;;;10.42;100.00
18850;BME280;4989;48.772;9.154;2022-09-29T07:05:37;96541.25;;;10.30;100.00
18850;BME280;4989;48.772;9.154;2022-09-29T07:10:39;96551.19;;;10.42;100.00
18850;BME280;4989;48.772;9.154;2022-09-29T07:15:42;96549.16;;;10.70;100.00
18850;BME280;4989;48.772;9.154;2022-09-29T07:20:44;96544.22;;;11.02;100.00
18850;BME280;4989;48.772;9.154;2022-09-29T07:25:47;96545.28;;;11.05;100.00
18850;BME280;4989;48.772;9.154;2022-09-29T07:31:00;96549.53;;;10.96;100.00
18850;BME280;4989;48.772;9.154;2022-09-29T07:36:18;96551.81;;;10.89;100.00
18850;BME280;4989;48.772;9.154;2022-09-29T07:41:23;96557.16;;;10.74;100.00
18850;BME280;4989;48.772;9.154;2022-09-29T07:46:26;96562.59;;;10.65;100.00
18850;BME280;4989;48.772;9.154;2022-09-29T07:51:28;96565.59;;;10.76;100.00
18850;BME280;4989;48.772;9.154;2022-09-29T07:56:31;96570.06;;;10.97;100.00
18850;BME280;4989;48.772;9.154;2022-09-29T08:01:34;96573.59;;;11.22;100.00
18850;BME280;4989;48.772;9.154;2022-09-29T08:06:36;96560.31;;;11.15;100.00
18850;BME280;4989;48.772;9.154;2022-09-29T08:11:41;96565.72;;;11.24;100.00
18850;BME280;4989;48.772;9.154;2022-09-29T08:16:43;96566.78;;;11.51;100.00
18850;BME280;4989;48.772;9.154;2022-09-29T08:21:46;96574.53;;;11.67;100.00
18850;BME280;4989;48.772;9.154;2022-09-29T08:26:51;96576.53;;;11.90;100.00
18850;BME280;4989;48.772;9.154;2022-09-29T08:31:53;96573.78;;;12.14;100.00
18850;BME280;4989;48.772;9.154;2022-09-29T08:36:57;96580.59;;;12.78;99.60
18850;BME280;4989;48.772;9.154;2022-09-29T08:42:18;96584.56;;;12.77;98.47
18850;BME280;4989;48.772;9.154;2022-09-29T08:47:29;96589.59;;;13.14;96.49
18850;BME280;4989;48.772;9.154;2022-09-29T08:53:06;96602.00;;;13.30;94.89
18850;BME280;4989;48.772;9.154;2022-09-29T08:58:24;96608.03;;;13.34;94.40
18850;BME280;4989;48.772;9.154;2022-09-29T09:19:42;96613.03;;;14.12;88.77
18850;BME280;4989;48.772;9.154;2022-09-29T09:24:54;96622.09;;;14.03;85.69
18850;BME280;4989;48.772;9.154;2022-09-29T09:30:12;96621.22;;;13.91;85.25
18850;BME280;4989;48.772;9.154;2022-09-29T09:40:41;96632.97;;;13.77;87.34
18850;BME280;4989;48.772;9.154;2022-09-29T09:45:54;96629.22;;;13.74;88.06
18850;BME280;4989;48.772;9.154;2022-09-29T09:51:01;96618.53;;;13.56;87.36
18850;BME280;4989;48.772;9.154;2022-09-29T10:01:41;96626.22;;;14.13;84.29
18850;BME280;4989;48.772;9.154;2022-09-29T10:06:44;96618.75;;;14.34;84.25
18850;BME280;4989;48.772;9.154;2022-09-29T10:11:47;96625.34;;;14.48;83.23
18850;BME280;4989;48.772;9.154;2022-09-29T10:22:12;96622.69;;;14.07;82.05
18850;BME280;4989;48.772;9.154;2022-09-29T10:27:20;96623.63;;;14.71;78.41
18850;BME280;4989;48.772;9.154;2022-09-29T10:32:31;96625.16;;;15.35;76.18
18850;BME280;4989;48.772;9.154;2022-09-29T10:37:41;96620.88;;;17.14;68.96
18850;BME280;4989;48.772;9.154;2022-09-29T10:42:46;96622.88;;;17.25;67.28
18850;BME280;4989;48.772;9.154;2022-09-29T10:48:12;96620.28;;;16.59;68.15
18850;BME280;4989;48.772;9.154;2022-09-29T10:58:42;96621.44;;;16.30;66.57
18850;BME280;4989;48.772;9.154;2022-09-29T11:04:05;96621.31;;;16.62;66.28
18850;BME280;4989;48.772;9.154;2022-09-29T11:19:37;96616.09;;;17.54;62.18
18850;BME280;4989;48.772;9.154;2022-09-29T11:30:16;96625.81;;;16.70;64.67
18850;BME280;4989;48.772;9.154;2022-09-29T11:51:09;96622.50;;;16.49;67.33
18850;BME280;4989;48.772;9.154;2022-09-29T11:56:32;96630.41;;;16.25;69.69
18850;BME280;4989;48.772;9.154;2022-09-29T12:12:54;96620.56;;;15.96;71.56
18850;BME280;4989;48.772;9.154;2022-09-29T12:18:13;96625.44;;;16.29;70.72
18850;BME280;4989;48.772;9.154;2022-09-29T12:23:19;96612.31;;;16.61;69.69
18850;BME280;4989;48.772;9.154;2022-09-29T12:28:29;96608.53;;;16.47;70.25
18850;BME280;4989;48.772;9.154;2022-09-29T12:33:38;96609.53;;;16.44;70.68
18850;BME280;4989;48.772;9.154;2022-09-29T12:38:44;96613.41;;;16.10;69.68
18850;BME280;4989;48.772;9.154;2022-09-29T12:44:12;96615.84;;;15.96;74.00
18850;BME280;4989;48.772;9.154;2022-09-29T12:49:18;96617.69;;;15.68;69.82
18850;BME280;4989;48.772;9.154;2022-09-29T12:59:41;96621.75;;;15.46;70.63
18850;BME280;4989;48.772;9.154;2022-09-29T13:20:55;96623.25;;;15.16;70.79
18850;BME280;4989;48.772;9.154;2022-09-29T13:26:32;96626.84;;;14.96;70.63
18850;BME280;4989;48.772;9.154;2022-09-29T13:31:38;96631.91;;;14.77;71.95
18850;BME280;4989;48.772;9.154;2022-09-29T13:36:43;96635.22;;;14.86;72.45
18850;BME280;4989;48.772;9.154;2022-09-29T13:41:46;96634.03;;;14.93;71.99
18850;BME280;4989;48.772;9.154;2022-09-29T13:46:50;96634.19;;;15.10;73.43
18850;BME280;4989;48.772;9.154;2022-09-29T13:52:00;96633.34;;;15.30;75.73
18850;BME280;4989;48.772;9.154;2022-09-29T13:57:23;96635.88;;;15.39;76.09
18850;BME280;4989;48.772;9.154;2022-09-29T14:02:48;96642.34;;;15.36;75.67
18850;BME280;4989;48.772;9.154;2022-09-29T14:13:14;96648.56;;;15.37;77.87
18850;BME280;4989;48.772;9.154;2022-09-29T14:18:30;96654.31;;;15.39;80.07
18850;BME280;4989;48.772;9.154;2022-09-29T14:23:47;96656.03;;;15.36;79.38
18850;BME280;4989;48.772;9.154;2022-09-29T14:28:51;96659.56;;;15.42;78.97
18850;BME280;4989;48.772;9.154;2022-09-29T14:33:54;96669.03;;;15.41;76.00
18850;BME280;4989;48.772;9.154;2022-09-29T14:38:57;96674.53;;;15.47;83.07
18850;BME280;4989;48.772;9.154;2022-09-29T15:00:11;96684.63;;;15.67;78.40
18850;BME280;4989;48.772;9.154;2022-09-29T15:05:27;96693.06;;;15.63;78.14
18850;BME280;4989;48.772;9.154;2022-09-29T15:10:39;96685.31;;;15.56;80.05
18850;BME280;4989;48.772;9.154;2022-09-29T15:15:43;96689.50;;;15.51;80.24
18850;BME280;4989;48.772;9.154;2022-09-29T15:26:45;96691.19;;;15.43;82.63
18850;BME280;4989;48.772;9.154;2022-09-29T15:31:48;96694.91;;;15.40;80.94
18850;BME280;4989;48.772;9.154;2022-09-29T15:36:52;96695.59;;;15.35;82.24
18850;BME280;4989;48.772;9.154;2022-09-29T15:42:00;96703.03;;;15.29;80.32
18850;BME280;4989;48.772;9.154;2022-09-29T15:47:03;96703.44;;;15.22;83.26
18850;BME280;4989;48.772;9.154;2022-09-29T15:52:11;96718.25;;;15.09;81.82
18850;BME280;4989;48.772;9.154;2022-09-29T16:08:16;96723.06;;;14.94;83.35
18850;BME280;4989;48.772;9.154;2022-09-29T16:13:25;96734.44;;;14.87;82.57
18850;BME280;4989;48.772;9.154;2022-09-29T16:23:50;96733.56;;;14.75;84.67
18850;BME280;4989;48.772;9.154;2022-09-29T16:29:32;96751.56;;;14.61;84.13
18850;BME280;4989;48.772;9.154;2022-09-29T16:34:35;96740.47;;;14.50;87.62
18850;BME280;4989;48.772;9.154;2022-09-29T16:39:46;96746.69;;;14.51;87.60
18850;BME280;4989;48.772;9.154;2022-09-29T16:44:49;96757.25;;;14.43;86.27
18850;BME280;4989;48.772;9.154;2022-09-29T16:49:57;96768.75;;;14.27;87.37
18850;BME280;4989;48.772;9.154;2022-09-29T17:00:11;96772.81;;;14.16;91.05
18850;BME280;4989;48.772;9.154;2022-09-29T17:05:15;96775.81;;;14.18;93.39
18850;BME280;4989;48.772;9.154;2022-09-29T17:10:19;96774.44;;;14.08;95.01
18850;BME280;4989;48.772;9.154;2022-09-29T17:15:22;96785.69;;;13.81;91.20
18850;BME280;4989;48.772;9.154;2022-09-29T17:20:27;96791.06;;;13.60;96.04
18850;BME280;4989;48.772;9.154;2022-09-29T17:25:33;96812.44;;;13.47;95.20
18850;BME280;4989;48.772;9.154;2022-09-29T17:30:37;96811.84;;;13.43;98.21
18850;BME280;4989;48.772;9.154;2022-09-29T17:35:45;96816.56;;;13.42;100.00
18850;BME280;4989;48.772;9.154;2022-09-29T17:41:02;96823.66;;;13.10;96.79
18850;BME280;4989;48.772;9.154;2022-09-29T17:46:07;96834.75;;;13.21;100.00
18850;BME280;4989;48.772;9.154;2022-09-29T17:51:15;96842.09;;;13.15;100.00
18850;BME280;4989;48.772;9.154;2022-09-29T17:56:25;96843.72;;;12.98;100.00
18850;BME280;4989;48.772;9.154;2022-09-29T18:01:28;96853.69;;;12.86;100.00
18850;BME280;4989;48.772;9.154;2022-09-29T18:06:32;96855.28;;;12.93;100.00
18850;BME280;4989;48.772;9.154;2022-09-29T18:11:38;96861.56;;;12.84;98.49
18850;BME280;4989;48.772;9.154;2022-09-29T18:16:40;96855.94;;;12.88;100.00
18850;BME280;4989;48.772;9.154;2022-09-29T18:21:43;96861.88;;;13.01;100.00
18850;BME280;4989;48.772;9.154;2022-09-29T18:26:46;96863.81;;;12.86;96.77
18850;BME280;4989;48.772;9.154;2022-09-29T18:31:48;96883.09;;;12.49;98.28
18850;BME280;4989;48.772;9.154;2022-09-29T18:36:51;96878.38;;;12.49;99.54
18850;BME280;4989;48.772;9.154;2022-09-29T18:41:54;96873.78;;;12.65;97.35
18850;BME280;4989;48.772;9.154;2022-09-29T18:46:56;96886.47;;;12.68;96.08
18850;BME280;4989;48.772;9.154;2022-09-29T18:51:59;96888.81;;;12.60;97.25
18850;BME280;4989;48.772;9.154;2022-09-29T18:57:01;96881.19;;;12.64;96.51
18850;BME280;4989;48.772;9.154;2022-09-29T19:02:04;96891.53;;;12.60;95.52
18850;BME280;4989;48.772;9.154;2022-09-29T19:07:09;96896.72;;;12.49;96.22
18850;BME280;4989;48.772;9.154;2022-09-29T19:12:14;96906.38;;;12.59;95.41
18850;BME280;4989;48.772;9.154;2022-09-29T19:17:16;96908.47;;;12.64;95.21
18850;BME280;4989;48.772;9.154;2022-09-29T19:22:19;96906.69;;;12.52;98.42
18850;BME280;4989;48.772;9.154;2022-09-29T19:27:22;96913.44;;;12.32;97.62
18850;BME280;4989;48.772;9.154;2022-09-29T19:32:24;96905.56;;;12.25;99.02
18850;BME280;4989;48.772;9.154;2022-09-29T19:37:27;96924.41;;;12.14;98.62
18850;BME280;4989;48.772;9.154;2022-09-29T19:42:29;96923.22;;;11.97;99.90
18850;BME280;4989;48.772;9.154;2022-09-29T19:47:32;96941.97;;;11.95;100.00
18850;BME280;4989;48.772;9.154;2022-09-29T19:52:35;96940.47;;;11.94;100.00
18850;BME280;4989;48.772;9.154;2022-09-29T19:57:38;96935.16;;;12.08;100.00
18850;BME280;4989;48.772;9.154;2022-09-29T20:02:44;96952.84;;;12.04;100.00
18850;BME280;4989;48.772;9.154;2022-09-29T20:07:48;96951.34;;;11.84;100.00
18850;BME280;4989;48.772;9.154;2022-09-29T20:12:51;96955.88;;;11.60;100.00
18850;BME280;4989;48.772;9.154;2022-09-29T20:17:53;96957.84;;;11.50;100.00
18850;BME280;4989;48.772;9.154;2022-09-29T20:22:56;96959.34;;;11.51;100.00
18850;BME280;4989;48.772;9.154;2022-09-29T20:27:58;96962.81;;;11.42;100.00
18850;BME280;4989;48.772;9.154;2022-09-29T20:33:01;96961.91;;;11.27;100.00
18850;BME280;4989;48.772;9.154;2022-09-29T20:38:03;96975.19;;;11.25;100.00
18850;BME280;4989;48.772;9.154;2022-09-29T20:43:06;96967.66;;;11.38;100.00
18850;BME280;4989;48.772;9.154;2022-09-29T20:48:08;96974.31;;;11.46;100.00
18850;BME280;4989;48.772;9.154;2022-09-29T20:53:11;96979.00;;;11.46;100.00
18850;BME280;4989;48.772;9.154;2022-09-29T20:58:14;96986.56;;;11.51;100.00
18850;BME280;4989;48.772;9.154;2022-09-29T21:03:16;96999.25;;;11.45;100.00
18850;BME280;4989;48.772;9.154;2022-09-29T21:08:19;96997.59;;;11.48;100.00
18850;BME280;4989;48.772;9.154;2022-09-29T21:13:21;97008.16;;;11.36;100.00
18850;BME280;4989;48.772;9.154;2022-09-29T21:18:26;97015.09;;;11.37;100.00
18850;BME280;4989;48.772;9.154;2022-09-29T21:23:30;97019.00;;;11.18;100.00
18850;BME280;4989;48.772;9.154;2022-09-29T21:28:35;97019.25;;;11.02;100.00
18850;BME280;4989;48.772;9.154;2022-09-29T21:33:41;97026.16;;;10.93;100.00
18850;BME280;4989;48.772;9.154;2022-09-29T21:38:44;97029.47;;;10.88;100.00
18850;BME280;4989;48.772;9.154;2022-09-29T21:43:49;97039.16;;;10.89;100.00
18850;BME280;4989;48.772;9.154;2022-09-29T21:48:56;97042.84;;;11.05;100.00
18850;BME280;4989;48.772;9.154;2022-09-29T21:54:00;97042.25;;;11.19;100.00
18850;BME280;4989;48.772;9.154;2022-09-29T21:59:03;97050.72;;;11.12;100.00
18850;BME280;4989;48.772;9.154;2022-09-29T22:04:06;97048.63;;;11.25;100.00
18850;BME280;4989;48.772;9.154;2022-09-29T22:09:16;97049.88;;;10.93;100.00
18850;BME280;4989;48.772;9.154;2022-09-29T22:14:19;97057.44;;;10.67;100.00
18850;BME280;4989;48.772;9.154;2022-09-29T22:19:22;97061.28;;;10.47;100.00
18850;BME280;4989;48.772;9.154;2022-09-29T22:24:26;97061.56;;;10.49;100.00
18850;BME280;4989;48.772;9.154;2022-09-29T22:29:29;97073.47;;;10.74;100.00
18850;BME280;4989;48.772;9.154;2022-09-29T22:34:31;97077.03;;;11.24;100.00
18850;BME280;4989;48.772;9.154;2022-09-29T22:39:34;97075.56;;;11.91;100.00
18850;BME280;4989;48.772;9.154;2022-09-29T22:44:36;97075.13;;;11.93;100.00
18850;BME280;4989;48.772;9.154;2022-09-29T22:49:39;97072.97;;;11.97;100.00
18850;BME280;4989;48.772;9.154;2022-09-29T22:54:41;97079.03;;;12.47;100.00
18850;BME280;4989;48.772;9.154;2022-09-29T22:59:43;97078.13;;;12.50;100.00
18850;BME280;4989;48.772;9.154;2022-09-29T23:04:47;97075.56;;;12.28;100.00
18850;BME280;4989;48.772;9.154;2022-09-29T23:09:49;97078.75;;;11.99;100.00
18850;BME280;4989;48.772;9.154;2022-09-29T23:14:52;97086.19;;;11.08;100.00
18850;BME280;4989;48.772;9.154;2022-09-29T23:19:55;97089.06;;;10.51;100.00
18850;BME280;4989;48.772;9.154;2022-09-29T23:24:58;97095.88;;;10.34;100.00
18850;BME280;4989;48.772;9.154;2022-09-29T23:30:00;97089.72;;;11.18;100.00
18850;BME280;4989;48.772;9.154;2022-09-29T23:35:03;97091.66;;;11.58;100.00
18850;BME280;4989;48.772;9.154;2022-09-29T23:40:06;97095.94;;;11.77;100.00
18850;BME280;4989;48.772;9.154;2022-09-29T23:45:08;97096.91;;;12.20;100.00
18850;BME280;4989;48.772;9.154;2022-09-29T23:50:10;97092.06;;;11.97;100.00
18850;BME280;4989;48.772;9.154;2022-09-29T23:55:13;97101.72;;;11.88;100.00
